Les Mechins, Canada
Current Conditions -  °F | °C
As of 12:00 PM on Thursday 27 Nov 2014 (Local Time) from CYBC Reporting Station
Broken Clouds Broken Clouds  
Wind Chill: 15°   Ceiling: 11000
Heat Index: 25°   Visibility: 9mi
Dew Point: 10°   Wind: 10mph
Humidity: 54%   Direction: 350°N
Pressure: 29.93"   Gusts: 20mph
Location:  48.98°N, 66.98°W
Report Text: CYBC 271700Z AUTO 35009G17KT 9SM BKN110 BKN130 M04/M12 A2993 RMK SLP138
Loading
Personal Weather Stations






























Interactive Weather Map New forecast layout! Learn more

10-Day Weather Forecast

Advertisements
Track Severe Weather on mobile